sensor_id;sensor_type;location;lat;lon;timestamp;P1;durP1;ratioP1;P2;durP2;ratioP2
11245;SDS011;59870;50.106;8.580;2023-07-29T00:02:01;5.50;;;5.10;;
11245;SDS011;59870;50.106;8.580;2023-07-29T00:04:29;5.03;;;4.73;;
11245;SDS011;59870;50.106;8.580;2023-07-29T00:06:57;4.90;;;4.60;;
11245;SDS011;59870;50.106;8.580;2023-07-29T00:09:24;5.33;;;5.03;;
11245;SDS011;59870;50.106;8.580;2023-07-29T00:11:52;5.40;;;5.10;;
11245;SDS011;59870;50.106;8.580;2023-07-29T00:14:19;5.00;;;4.80;;
11245;SDS011;59870;50.106;8.580;2023-07-29T00:16:47;5.50;;;5.10;;
11245;SDS011;59870;50.106;8.580;2023-07-29T00:19:14;4.87;;;4.67;;
11245;SDS011;59870;50.106;8.580;2023-07-29T00:21:42;5.30;;;5.00;;
11245;SDS011;59870;50.106;8.580;2023-07-29T00:24:09;5.80;;;4.77;;
11245;SDS011;59870;50.106;8.580;2023-07-29T00:26:37;5.80;;;5.40;;
11245;SDS011;59870;50.106;8.580;2023-07-29T00:29:04;5.57;;;5.17;;
11245;SDS011;59870;50.106;8.580;2023-07-29T00:31:32;6.20;;;5.70;;
11245;SDS011;59870;50.106;8.580;2023-07-29T00:34:00;6.33;;;6.00;;
11245;SDS011;59870;50.106;8.580;2023-07-29T00:36:27;5.33;;;5.03;;
11245;SDS011;59870;50.106;8.580;2023-07-29T00:38:55;6.47;;;6.07;;
11245;SDS011;59870;50.106;8.580;2023-07-29T00:41:23;6.43;;;6.03;;
11245;SDS011;59870;50.106;8.580;2023-07-29T00:43:53;6.87;;;6.40;;
11245;SDS011;59870;50.106;8.580;2023-07-29T00:46:20;7.63;;;7.03;;
11245;SDS011;59870;50.106;8.580;2023-07-29T00:48:50;7.57;;;7.10;;
11245;SDS011;59870;50.106;8.580;2023-07-29T00:51:17;6.83;;;6.43;;
11245;SDS011;59870;50.106;8.580;2023-07-29T00:53:45;7.43;;;7.00;;
11245;SDS011;59870;50.106;8.580;2023-07-29T00:56:12;7.40;;;7.00;;
11245;SDS011;59870;50.106;8.580;2023-07-29T00:58:40;7.47;;;6.77;;
11245;SDS011;59870;50.106;8.580;2023-07-29T01:01:08;7.17;;;6.77;;
11245;SDS011;59870;50.106;8.580;2023-07-29T01:03:35;7.30;;;6.80;;
11245;SDS011;59870;50.106;8.580;2023-07-29T01:09:04;7.20;;;6.80;;
11245;SDS011;59870;50.106;8.580;2023-07-29T01:11:41;7.57;;;6.97;;
11245;SDS011;59870;50.106;8.580;2023-07-29T01:16:59;7.10;;;6.60;;
11245;SDS011;59870;50.106;8.580;2023-07-29T01:19:43;7.60;;;7.20;;
11245;SDS011;59870;50.106;8.580;2023-07-29T01:22:23;8.97;;;8.07;;
11245;SDS011;59870;50.106;8.580;2023-07-29T01:24:51;8.33;;;7.80;;
11245;SDS011;59870;50.106;8.580;2023-07-29T01:27:18;8.43;;;7.80;;
11245;SDS011;59870;50.106;8.580;2023-07-29T01:29:46;8.23;;;7.63;;
11245;SDS011;59870;50.106;8.580;2023-07-29T01:32:19;8.80;;;8.20;;
11245;SDS011;59870;50.106;8.580;2023-07-29T01:35:42;9.23;;;8.17;;
11245;SDS011;59870;50.106;8.580;2023-07-29T01:37:49;8.20;;;7.70;;
11245;SDS011;59870;50.106;8.580;2023-07-29T01:40:26;8.63;;;7.67;;
11245;SDS011;59870;50.106;8.580;2023-07-29T01:42:56;8.03;;;7.53;;
11245;SDS011;59870;50.106;8.580;2023-07-29T01:45:24;8.27;;;7.77;;
11245;SDS011;59870;50.106;8.580;2023-07-29T01:47:55;8.33;;;7.57;;
11245;SDS011;59870;50.106;8.580;2023-07-29T01:50:23;7.53;;;7.00;;
11245;SDS011;59870;50.106;8.580;2023-07-29T01:52:50;8.17;;;7.47;;
11245;SDS011;59870;50.106;8.580;2023-07-29T01:55:18;8.17;;;7.53;;
11245;SDS011;59870;50.106;8.580;2023-07-29T01:57:46;7.67;;;7.17;;
11245;SDS011;59870;50.106;8.580;2023-07-29T02:00:14;7.87;;;7.17;;
11245;SDS011;59870;50.106;8.580;2023-07-29T02:02:44;7.70;;;7.20;;
11245;SDS011;59870;50.106;8.580;2023-07-29T02:05:11;7.17;;;6.47;;
11245;SDS011;59870;50.106;8.580;2023-07-29T02:07:39;6.93;;;6.33;;
11245;SDS011;59870;50.106;8.580;2023-07-29T02:10:07;6.87;;;6.27;;
11245;SDS011;59870;50.106;8.580;2023-07-29T02:12:35;6.07;;;5.73;;
11245;SDS011;59870;50.106;8.580;2023-07-29T02:15:03;6.13;;;5.83;;
11245;SDS011;59870;50.106;8.580;2023-07-29T02:17:31;7.87;;;5.33;;
11245;SDS011;59870;50.106;8.580;2023-07-29T02:19:58;6.80;;;6.17;;
11245;SDS011;59870;50.106;8.580;2023-07-29T02:22:26;6.37;;;5.90;;
11245;SDS011;59870;50.106;8.580;2023-07-29T02:24:53;6.00;;;5.70;;
11245;SDS011;59870;50.106;8.580;2023-07-29T02:27:21;5.90;;;5.50;;
11245;SDS011;59870;50.106;8.580;2023-07-29T02:29:48;5.83;;;5.43;;
11245;SDS011;59870;50.106;8.580;2023-07-29T02:32:16;6.97;;;5.50;;
11245;SDS011;59870;50.106;8.580;2023-07-29T02:34:44;5.73;;;5.33;;
11245;SDS011;59870;50.106;8.580;2023-07-29T02:37:11;4.97;;;4.67;;
11245;SDS011;59870;50.106;8.580;2023-07-29T02:39:39;5.53;;;5.13;;
11245;SDS011;59870;50.106;8.580;2023-07-29T02:42:06;5.77;;;5.33;;
11245;SDS011;59870;50.106;8.580;2023-07-29T02:44:34;5.20;;;4.80;;
11245;SDS011;59870;50.106;8.580;2023-07-29T02:47:01;8.53;;;4.90;;
11245;SDS011;59870;50.106;8.580;2023-07-29T02:49:29;5.43;;;5.03;;
11245;SDS011;59870;50.106;8.580;2023-07-29T02:51:56;5.80;;;5.27;;
11245;SDS011;59870;50.106;8.580;2023-07-29T02:54:24;5.43;;;5.03;;
11245;SDS011;59870;50.106;8.580;2023-07-29T02:56:51;4.63;;;4.23;;
11245;SDS011;59870;50.106;8.580;2023-07-29T02:59:19;4.80;;;4.50;;
11245;SDS011;59870;50.106;8.580;2023-07-29T03:01:46;5.40;;;5.00;;
11245;SDS011;59870;50.106;8.580;2023-07-29T03:04:14;6.10;;;5.53;;
11245;SDS011;59870;50.106;8.580;2023-07-29T03:06:42;5.00;;;4.50;;
11245;SDS011;59870;50.106;8.580;2023-07-29T03:09:10;5.33;;;5.00;;
11245;SDS011;59870;50.106;8.580;2023-07-29T03:11:37;5.27;;;4.97;;
11245;SDS011;59870;50.106;8.580;2023-07-29T03:14:04;5.33;;;4.93;;
11245;SDS011;59870;50.106;8.580;2023-07-29T03:16:32;5.10;;;4.80;;
11245;SDS011;59870;50.106;8.580;2023-07-29T03:19:00;4.60;;;4.40;;
11245;SDS011;59870;50.106;8.580;2023-07-29T03:21:27;5.80;;;4.93;;
11245;SDS011;59870;50.106;8.580;2023-07-29T03:23:55;4.80;;;4.40;;
11245;SDS011;59870;50.106;8.580;2023-07-29T03:26:22;5.30;;;4.07;;
11245;SDS011;59870;50.106;8.580;2023-07-29T03:28:50;5.10;;;4.80;;
11245;SDS011;59870;50.106;8.580;2023-07-29T03:31:17;5.00;;;4.40;;
11245;SDS011;59870;50.106;8.580;2023-07-29T03:33:45;4.40;;;4.00;;
11245;SDS011;59870;50.106;8.580;2023-07-29T03:36:13;5.20;;;4.90;;
11245;SDS011;59870;50.106;8.580;2023-07-29T03:38:41;4.80;;;4.50;;
11245;SDS011;59870;50.106;8.580;2023-07-29T03:41:09;5.10;;;4.73;;
11245;SDS011;59870;50.106;8.580;2023-07-29T03:43:36;4.80;;;4.50;;
11245;SDS011;59870;50.106;8.580;2023-07-29T03:46:04;5.80;;;5.40;;
11245;SDS011;59870;50.106;8.580;2023-07-29T03:48:34;5.07;;;4.77;;
11245;SDS011;59870;50.106;8.580;2023-07-29T03:51:01;5.37;;;5.07;;
11245;SDS011;59870;50.106;8.580;2023-07-29T03:53:29;5.87;;;4.83;;
11245;SDS011;59870;50.106;8.580;2023-07-29T03:55:56;5.33;;;5.03;;
11245;SDS011;59870;50.106;8.580;2023-07-29T03:58:24;7.87;;;5.60;;
11245;SDS011;59870;50.106;8.580;2023-07-29T04:00:51;6.00;;;5.50;;
11245;SDS011;59870;50.106;8.580;2023-07-29T04:03:19;5.60;;;5.20;;
11245;SDS011;59870;50.106;8.580;2023-07-29T04:05:48;6.50;;;5.90;;
11245;SDS011;59870;50.106;8.580;2023-07-29T04:08:15;6.13;;;5.63;;
11245;SDS011;59870;50.106;8.580;2023-07-29T04:10:43;6.47;;;5.90;;
11245;SDS011;59870;50.106;8.580;2023-07-29T04:13:10;6.63;;;6.20;;
11245;SDS011;59870;50.106;8.580;2023-07-29T04:15:37;19.53;;;6.03;;
11245;SDS011;59870;50.106;8.580;2023-07-29T04:18:05;6.10;;;5.70;;
11245;SDS011;59870;50.106;8.580;2023-07-29T04:20:33;6.83;;;6.43;;
11245;SDS011;59870;50.106;8.580;2023-07-29T04:23:01;6.43;;;6.03;;
11245;SDS011;59870;50.106;8.580;2023-07-29T04:25:28;6.80;;;6.40;;
11245;SDS011;59870;50.106;8.580;2023-07-29T04:27:56;7.23;;;6.63;;
11245;SDS011;59870;50.106;8.580;2023-07-29T04:30:25;7.37;;;6.80;;
11245;SDS011;59870;50.106;8.580;2023-07-29T04:32:52;6.97;;;6.57;;
11245;SDS011;59870;50.106;8.580;2023-07-29T04:35:21;6.90;;;6.40;;
11245;SDS011;59870;50.106;8.580;2023-07-29T04:37:48;7.67;;;7.17;;
11245;SDS011;59870;50.106;8.580;2023-07-29T04:40:16;7.73;;;7.13;;
11245;SDS011;59870;50.106;8.580;2023-07-29T04:42:43;7.20;;;6.70;;
11245;SDS011;59870;50.106;8.580;2023-07-29T04:45:11;7.13;;;6.73;;
11245;SDS011;59870;50.106;8.580;2023-07-29T04:47:38;8.63;;;7.87;;
11245;SDS011;59870;50.106;8.580;2023-07-29T04:50:06;8.20;;;7.60;;
11245;SDS011;59870;50.106;8.580;2023-07-29T04:52:34;8.10;;;7.60;;
11245;SDS011;59870;50.106;8.580;2023-07-29T04:55:01;8.13;;;7.53;;
11245;SDS011;59870;50.106;8.580;2023-07-29T04:57:29;8.77;;;8.13;;
11245;SDS011;59870;50.106;8.580;2023-07-29T04:59:57;8.77;;;8.20;;
11245;SDS011;59870;50.106;8.580;2023-07-29T05:02:25;8.37;;;7.87;;
11245;SDS011;59870;50.106;8.580;2023-07-29T05:04:54;8.30;;;7.60;;
11245;SDS011;59870;50.106;8.580;2023-07-29T05:07:21;8.10;;;7.60;;
11245;SDS011;59870;50.106;8.580;2023-07-29T05:09:48;7.97;;;7.27;;
11245;SDS011;59870;50.106;8.580;2023-07-29T05:12:16;7.83;;;7.33;;
11245;SDS011;59870;50.106;8.580;2023-07-29T05:14:43;8.80;;;8.00;;
11245;SDS011;59870;50.106;8.580;2023-07-29T05:17:11;7.83;;;7.43;;
11245;SDS011;59870;50.106;8.580;2023-07-29T05:19:39;8.10;;;7.60;;
11245;SDS011;59870;50.106;8.580;2023-07-29T05:22:06;8.00;;;7.50;;
11245;SDS011;59870;50.106;8.580;2023-07-29T05:24:34;7.33;;;6.97;;
11245;SDS011;59870;50.106;8.580;2023-07-29T05:27:01;7.53;;;7.13;;
11245;SDS011;59870;50.106;8.580;2023-07-29T05:29:29;8.50;;;8.00;;
11245;SDS011;59870;50.106;8.580;2023-07-29T05:31:56;8.63;;;8.03;;
11245;SDS011;59870;50.106;8.580;2023-07-29T05:34:24;8.20;;;7.70;;
11245;SDS011;59870;50.106;8.580;2023-07-29T05:36:51;9.67;;;8.80;;
11245;SDS011;59870;50.106;8.580;2023-07-29T05:39:18;10.23;;;9.53;;
11245;SDS011;59870;50.106;8.580;2023-07-29T05:41:46;9.77;;;9.10;;
11245;SDS011;59870;50.106;8.580;2023-07-29T05:44:14;9.37;;;8.77;;
11245;SDS011;59870;50.106;8.580;2023-07-29T05:46:42;9.80;;;8.40;;
11245;SDS011;59870;50.106;8.580;2023-07-29T05:49:09;9.33;;;8.60;;
11245;SDS011;59870;50.106;8.580;2023-07-29T05:51:36;8.87;;;8.37;;
11245;SDS011;59870;50.106;8.580;2023-07-29T05:54:05;8.83;;;8.13;;
11245;SDS011;59870;50.106;8.580;2023-07-29T05:56:33;8.90;;;8.37;;
11245;SDS011;59870;50.106;8.580;2023-07-29T05:59:01;8.53;;;7.90;;
11245;SDS011;59870;50.106;8.580;2023-07-29T06:01:28;8.13;;;7.73;;
11245;SDS011;59870;50.106;8.580;2023-07-29T06:03:56;8.57;;;7.80;;
11245;SDS011;59870;50.106;8.580;2023-07-29T06:06:23;9.03;;;8.43;;
11245;SDS011;59870;50.106;8.580;2023-07-29T06:08:52;8.50;;;8.00;;
11245;SDS011;59870;50.106;8.580;2023-07-29T06:11:19;9.83;;;9.23;;
11245;SDS011;59870;50.106;8.580;2023-07-29T06:13:47;9.23;;;8.47;;
11245;SDS011;59870;50.106;8.580;2023-07-29T06:16:15;8.63;;;8.13;;
11245;SDS011;59870;50.106;8.580;2023-07-29T06:18:43;10.87;;;8.40;;
11245;SDS011;59870;50.106;8.580;2023-07-29T06:21:11;8.93;;;8.40;;
11245;SDS011;59870;50.106;8.580;2023-07-29T06:23:45;8.23;;;7.57;;
11245;SDS011;59870;50.106;8.580;2023-07-29T06:26:13;9.23;;;8.33;;
11245;SDS011;59870;50.106;8.580;2023-07-29T06:28:41;8.43;;;7.70;;
11245;SDS011;59870;50.106;8.580;2023-07-29T06:31:09;8.47;;;8.07;;
11245;SDS011;59870;50.106;8.580;2023-07-29T06:33:36;9.53;;;8.73;;
11245;SDS011;59870;50.106;8.580;2023-07-29T06:36:04;8.10;;;7.60;;
11245;SDS011;59870;50.106;8.580;2023-07-29T06:38:32;8.03;;;7.63;;
11245;SDS011;59870;50.106;8.580;2023-07-29T06:40:59;6.70;;;6.30;;
11245;SDS011;59870;50.106;8.580;2023-07-29T06:43:26;6.23;;;5.83;;
11245;SDS011;59870;50.106;8.580;2023-07-29T06:45:54;5.97;;;5.47;;
11245;SDS011;59870;50.106;8.580;2023-07-29T06:48:22;5.87;;;5.57;;
11245;SDS011;59870;50.106;8.580;2023-07-29T06:50:49;6.13;;;5.73;;
11245;SDS011;59870;50.106;8.580;2023-07-29T06:53:17;7.67;;;5.30;;
11245;SDS011;59870;50.106;8.580;2023-07-29T06:55:44;5.23;;;4.77;;
11245;SDS011;59870;50.106;8.580;2023-07-29T06:58:12;4.60;;;4.30;;
11245;SDS011;59870;50.106;8.580;2023-07-29T07:00:40;4.43;;;4.23;;
11245;SDS011;59870;50.106;8.580;2023-07-29T07:03:07;4.60;;;4.30;;
11245;SDS011;59870;50.106;8.580;2023-07-29T07:05:34;4.50;;;4.30;;
11245;SDS011;59870;50.106;8.580;2023-07-29T07:08:02;4.63;;;4.37;;
11245;SDS011;59870;50.106;8.580;2023-07-29T07:10:30;4.20;;;4.00;;
11245;SDS011;59870;50.106;8.580;2023-07-29T07:12:57;5.63;;;5.33;;
11245;SDS011;59870;50.106;8.580;2023-07-29T07:15:24;5.60;;;5.30;;
11245;SDS011;59870;50.106;8.580;2023-07-29T07:17:52;5.50;;;5.00;;
11245;SDS011;59870;50.106;8.580;2023-07-29T07:20:19;5.77;;;5.23;;
11245;SDS011;59870;50.106;8.580;2023-07-29T07:22:46;6.67;;;6.23;;
11245;SDS011;59870;50.106;8.580;2023-07-29T07:25:14;7.93;;;6.20;;
11245;SDS011;59870;50.106;8.580;2023-07-29T07:27:41;6.73;;;6.17;;
11245;SDS011;59870;50.106;8.580;2023-07-29T07:30:09;6.50;;;6.20;;
11245;SDS011;59870;50.106;8.580;2023-07-29T07:32:37;6.77;;;6.37;;
11245;SDS011;59870;50.106;8.580;2023-07-29T07:35:04;6.50;;;6.20;;
11245;SDS011;59870;50.106;8.580;2023-07-29T07:37:32;7.40;;;6.80;;
11245;SDS011;59870;50.106;8.580;2023-07-29T07:40:00;6.50;;;6.00;;
11245;SDS011;59870;50.106;8.580;2023-07-29T07:42:27;6.50;;;6.10;;
11245;SDS011;59870;50.106;8.580;2023-07-29T07:44:55;6.03;;;5.73;;
11245;SDS011;59870;50.106;8.580;2023-07-29T07:47:22;7.03;;;6.33;;
11245;SDS011;59870;50.106;8.580;2023-07-29T07:49:49;7.30;;;6.80;;
11245;SDS011;59870;50.106;8.580;2023-07-29T07:52:17;7.53;;;6.90;;
11245;SDS011;59870;50.106;8.580;2023-07-29T07:54:44;6.73;;;6.43;;
11245;SDS011;59870;50.106;8.580;2023-07-29T07:57:12;6.13;;;5.77;;
11245;SDS011;59870;50.106;8.580;2023-07-29T07:59:39;6.63;;;6.30;;
11245;SDS011;59870;50.106;8.580;2023-07-29T08:02:06;6.87;;;6.43;;
11245;SDS011;59870;50.106;8.580;2023-07-29T08:04:49;6.60;;;6.10;;
11245;SDS011;59870;50.106;8.580;2023-07-29T08:07:16;6.30;;;5.90;;
11245;SDS011;59870;50.106;8.580;2023-07-29T08:09:43;6.20;;;5.90;;
11245;SDS011;59870;50.106;8.580;2023-07-29T08:12:14;5.93;;;5.47;;
11245;SDS011;59870;50.106;8.580;2023-07-29T08:14:45;7.33;;;5.97;;
11245;SDS011;59870;50.106;8.580;2023-07-29T08:17:13;5.87;;;5.13;;
11245;SDS011;59870;50.106;8.580;2023-07-29T08:19:40;5.10;;;4.80;;
11245;SDS011;59870;50.106;8.580;2023-07-29T08:22:08;5.17;;;4.87;;
11245;SDS011;59870;50.106;8.580;2023-07-29T08:24:35;5.43;;;4.97;;
11245;SDS011;59870;50.106;8.580;2023-07-29T08:27:03;5.47;;;5.07;;
11245;SDS011;59870;50.106;8.580;2023-07-29T08:29:30;4.60;;;4.20;;
11245;SDS011;59870;50.106;8.580;2023-07-29T08:31:58;4.73;;;4.33;;
11245;SDS011;59870;50.106;8.580;2023-07-29T08:34:25;4.67;;;4.40;;
11245;SDS011;59870;50.106;8.580;2023-07-29T08:36:52;4.30;;;4.10;;
11245;SDS011;59870;50.106;8.580;2023-07-29T08:39:20;3.87;;;3.67;;
11245;SDS011;59870;50.106;8.580;2023-07-29T08:41:50;3.20;;;3.00;;
11245;SDS011;59870;50.106;8.580;2023-07-29T08:44:28;3.37;;;3.27;;
11245;SDS011;59870;50.106;8.580;2023-07-29T08:47:00;3.87;;;3.67;;
11245;SDS011;59870;50.106;8.580;2023-07-29T08:49:28;3.13;;;2.93;;
11245;SDS011;59870;50.106;8.580;2023-07-29T08:51:56;3.40;;;3.30;;
11245;SDS011;59870;50.106;8.580;2023-07-29T08:54:24;3.20;;;2.90;;
11245;SDS011;59870;50.106;8.580;2023-07-29T08:56:52;3.83;;;3.60;;
11245;SDS011;59870;50.106;8.580;2023-07-29T08:59:20;3.97;;;3.00;;
11245;SDS011;59870;50.106;8.580;2023-07-29T09:01:48;3.53;;;3.33;;
11245;SDS011;59870;50.106;8.580;2023-07-29T09:04:16;3.83;;;3.47;;
11245;SDS011;59870;50.106;8.580;2023-07-29T09:06:44;3.47;;;3.27;;
11245;SDS011;59870;50.106;8.580;2023-07-29T09:09:13;3.43;;;3.23;;
11245;SDS011;59870;50.106;8.580;2023-07-29T09:11:41;3.50;;;3.20;;
11245;SDS011;59870;50.106;8.580;2023-07-29T09:14:09;3.23;;;3.00;;
11245;SDS011;59870;50.106;8.580;2023-07-29T09:16:38;4.90;;;3.00;;
11245;SDS011;59870;50.106;8.580;2023-07-29T09:19:06;3.00;;;2.80;;
11245;SDS011;59870;50.106;8.580;2023-07-29T09:21:33;3.17;;;2.90;;
11245;SDS011;59870;50.106;8.580;2023-07-29T09:24:05;2.77;;;2.67;;
11245;SDS011;59870;50.106;8.580;2023-07-29T09:26:34;2.77;;;2.57;;
11245;SDS011;59870;50.106;8.580;2023-07-29T09:29:03;2.57;;;2.47;;
11245;SDS011;59870;50.106;8.580;2023-07-29T09:31:31;2.63;;;2.50;;
11245;SDS011;59870;50.106;8.580;2023-07-29T09:33:59;3.00;;;2.80;;
11245;SDS011;59870;50.106;8.580;2023-07-29T09:36:30;2.87;;;2.67;;
11245;SDS011;59870;50.106;8.580;2023-07-29T09:38:58;2.70;;;2.60;;
11245;SDS011;59870;50.106;8.580;2023-07-29T09:41:27;2.50;;;2.40;;
11245;SDS011;59870;50.106;8.580;2023-07-29T09:43:56;2.30;;;2.20;;
11245;SDS011;59870;50.106;8.580;2023-07-29T09:46:25;2.37;;;2.27;;
11245;SDS011;59870;50.106;8.580;2023-07-29T09:49:01;2.30;;;2.20;;
11245;SDS011;59870;50.106;8.580;2023-07-29T09:51:29;1.80;;;1.80;;
11245;SDS011;59870;50.106;8.580;2023-07-29T09:53:57;2.03;;;1.93;;
11245;SDS011;59870;50.106;8.580;2023-07-29T09:56:29;2.60;;;2.30;;
11245;SDS011;59870;50.106;8.580;2023-07-29T09:58:57;1.90;;;1.90;;
11245;SDS011;59870;50.106;8.580;2023-07-29T10:01:24;3.50;;;2.30;;
11245;SDS011;59870;50.106;8.580;2023-07-29T10:03:52;2.40;;;2.30;;
11245;SDS011;59870;50.106;8.580;2023-07-29T10:06:20;2.63;;;2.53;;
11245;SDS011;59870;50.106;8.580;2023-07-29T10:08:49;2.17;;;2.13;;
11245;SDS011;59870;50.106;8.580;2023-07-29T10:11:19;2.40;;;2.30;;
11245;SDS011;59870;50.106;8.580;2023-07-29T10:13:49;2.53;;;2.43;;
11245;SDS011;59870;50.106;8.580;2023-07-29T10:16:34;2.47;;;2.37;;
11245;SDS011;59870;50.106;8.580;2023-07-29T10:19:03;2.00;;;1.90;;
11245;SDS011;59870;50.106;8.580;2023-07-29T10:21:32;2.40;;;2.30;;
11245;SDS011;59870;50.106;8.580;2023-07-29T10:24:01;2.40;;;2.30;;
11245;SDS011;59870;50.106;8.580;2023-07-29T10:26:33;3.43;;;2.10;;
11245;SDS011;59870;50.106;8.580;2023-07-29T10:29:02;2.50;;;2.40;;
11245;SDS011;59870;50.106;8.580;2023-07-29T10:31:36;2.77;;;2.57;;
11245;SDS011;59870;50.106;8.580;2023-07-29T10:34:06;2.43;;;2.33;;
11245;SDS011;59870;50.106;8.580;2023-07-29T10:36:34;2.57;;;2.37;;
11245;SDS011;59870;50.106;8.580;2023-07-29T10:39:03;2.83;;;2.63;;
11245;SDS011;59870;50.106;8.580;2023-07-29T10:47:12;3.37;;;2.70;;
11245;SDS011;59870;50.106;8.580;2023-07-29T10:49:44;2.57;;;2.47;;
11245;SDS011;59870;50.106;8.580;2023-07-29T10:52:13;2.40;;;2.30;;
11245;SDS011;59870;50.106;8.580;2023-07-29T10:54:54;2.60;;;2.50;;
11245;SDS011;59870;50.106;8.580;2023-07-29T10:57:31;2.53;;;2.43;;
11245;SDS011;59870;50.106;8.580;2023-07-29T11:00:00;2.60;;;2.50;;
11245;SDS011;59870;50.106;8.580;2023-07-29T11:02:37;2.60;;;2.50;;
11245;SDS011;59870;50.106;8.580;2023-07-29T11:05:05;2.63;;;2.43;;
11245;SDS011;59870;50.106;8.580;2023-07-29T11:07:44;5.80;;;3.00;;
11245;SDS011;59870;50.106;8.580;2023-07-29T11:10:13;2.60;;;2.50;;
11245;SDS011;59870;50.106;8.580;2023-07-29T11:12:45;2.70;;;2.60;;
11245;SDS011;59870;50.106;8.580;2023-07-29T11:17:52;2.40;;;2.30;;
11245;SDS011;59870;50.106;8.580;2023-07-29T11:20:24;6.30;;;2.40;;
11245;SDS011;59870;50.106;8.580;2023-07-29T11:22:54;3.27;;;2.40;;
11245;SDS011;59870;50.106;8.580;2023-07-29T11:25:22;2.43;;;2.23;;
11245;SDS011;59870;50.106;8.580;2023-07-29T11:27:51;2.50;;;2.40;;
11245;SDS011;59870;50.106;8.580;2023-07-29T11:30:20;3.00;;;2.90;;
11245;SDS011;59870;50.106;8.580;2023-07-29T11:32:49;4.70;;;4.40;;
11245;SDS011;59870;50.106;8.580;2023-07-29T11:35:17;3.00;;;2.70;;
11245;SDS011;59870;50.106;8.580;2023-07-29T11:37:45;3.23;;;2.70;;
11245;SDS011;59870;50.106;8.580;2023-07-29T11:40:15;2.97;;;2.77;;
11245;SDS011;59870;50.106;8.580;2023-07-29T11:42:44;2.93;;;2.83;;
11245;SDS011;59870;50.106;8.580;2023-07-29T11:45:13;3.07;;;2.90;;
11245;SDS011;59870;50.106;8.580;2023-07-29T11:47:44;2.97;;;2.87;;
11245;SDS011;59870;50.106;8.580;2023-07-29T11:50:13;2.70;;;2.60;;
11245;SDS011;59870;50.106;8.580;2023-07-29T11:52:43;2.70;;;2.60;;
11245;SDS011;59870;50.106;8.580;2023-07-29T11:55:11;3.90;;;2.83;;
11245;SDS011;59870;50.106;8.580;2023-07-29T11:57:41;3.17;;;3.07;;
11245;SDS011;59870;50.106;8.580;2023-07-29T12:00:09;2.43;;;2.30;;
11245;SDS011;59870;50.106;8.580;2023-07-29T12:02:40;2.63;;;2.53;;
11245;SDS011;59870;50.106;8.580;2023-07-29T12:05:12;2.03;;;1.93;;
11245;SDS011;59870;50.106;8.580;2023-07-29T12:07:42;2.50;;;2.40;;
11245;SDS011;59870;50.106;8.580;2023-07-29T12:10:10;3.27;;;2.70;;
11245;SDS011;59870;50.106;8.580;2023-07-29T12:12:43;2.90;;;2.80;;
11245;SDS011;59870;50.106;8.580;2023-07-29T12:15:13;3.57;;;2.57;;
11245;SDS011;59870;50.106;8.580;2023-07-29T12:17:41;2.90;;;2.80;;
11245;SDS011;59870;50.106;8.580;2023-07-29T12:20:09;2.67;;;2.57;;
11245;SDS011;59870;50.106;8.580;2023-07-29T12:22:37;2.83;;;2.73;;
11245;SDS011;59870;50.106;8.580;2023-07-29T12:25:05;2.80;;;2.63;;
11245;SDS011;59870;50.106;8.580;2023-07-29T12:27:33;2.43;;;2.33;;
11245;SDS011;59870;50.106;8.580;2023-07-29T12:30:01;2.97;;;2.77;;
11245;SDS011;59870;50.106;8.580;2023-07-29T12:32:32;2.67;;;2.57;;
11245;SDS011;59870;50.106;8.580;2023-07-29T12:35:00;2.57;;;2.37;;
11245;SDS011;59870;50.106;8.580;2023-07-29T12:37:31;3.23;;;2.73;;
11245;SDS011;59870;50.106;8.580;2023-07-29T12:39:59;2.50;;;2.40;;
11245;SDS011;59870;50.106;8.580;2023-07-29T12:42:27;3.47;;;3.17;;
11245;SDS011;59870;50.106;8.580;2023-07-29T12:44:54;2.90;;;2.57;;
11245;SDS011;59870;50.106;8.580;2023-07-29T12:47:22;3.03;;;2.93;;
11245;SDS011;59870;50.106;8.580;2023-07-29T12:49:49;2.40;;;2.30;;
11245;SDS011;59870;50.106;8.580;2023-07-29T12:52:17;2.83;;;2.73;;
11245;SDS011;59870;50.106;8.580;2023-07-29T12:54:45;2.73;;;2.60;;
11245;SDS011;59870;50.106;8.580;2023-07-29T12:57:12;2.67;;;2.47;;
11245;SDS011;59870;50.106;8.580;2023-07-29T12:59:40;2.77;;;2.57;;
11245;SDS011;59870;50.106;8.580;2023-07-29T13:02:07;2.77;;;2.60;;
11245;SDS011;59870;50.106;8.580;2023-07-29T13:04:36;2.80;;;2.70;;
11245;SDS011;59870;50.106;8.580;2023-07-29T13:07:03;2.50;;;2.40;;
11245;SDS011;59870;50.106;8.580;2023-07-29T13:09:32;2.87;;;2.77;;
11245;SDS011;59870;50.106;8.580;2023-07-29T13:11:59;2.80;;;2.60;;
11245;SDS011;59870;50.106;8.580;2023-07-29T13:14:27;2.67;;;2.57;;
11245;SDS011;59870;50.106;8.580;2023-07-29T13:16:54;2.90;;;2.80;;
11245;SDS011;59870;50.106;8.580;2023-07-29T13:19:22;3.13;;;2.90;;
11245;SDS011;59870;50.106;8.580;2023-07-29T13:21:50;4.80;;;3.17;;
11245;SDS011;59870;50.106;8.580;2023-07-29T13:24:17;2.67;;;2.57;;
11245;SDS011;59870;50.106;8.580;2023-07-29T13:26:45;2.80;;;2.70;;
11245;SDS011;59870;50.106;8.580;2023-07-29T13:29:12;3.07;;;2.97;;
11245;SDS011;59870;50.106;8.580;2023-07-29T13:31:40;2.80;;;2.70;;
11245;SDS011;59870;50.106;8.580;2023-07-29T13:34:07;3.23;;;3.03;;
11245;SDS011;59870;50.106;8.580;2023-07-29T13:36:35;3.10;;;3.00;;
11245;SDS011;59870;50.106;8.580;2023-07-29T13:39:02;2.97;;;2.80;;
11245;SDS011;59870;50.106;8.580;2023-07-29T13:41:30;2.83;;;2.73;;
11245;SDS011;59870;50.106;8.580;2023-07-29T13:43:57;2.40;;;2.30;;
11245;SDS011;59870;50.106;8.580;2023-07-29T13:46:25;3.00;;;2.80;;
11245;SDS011;59870;50.106;8.580;2023-07-29T13:48:52;3.30;;;3.10;;
11245;SDS011;59870;50.106;8.580;2023-07-29T13:51:19;3.07;;;2.97;;
11245;SDS011;59870;50.106;8.580;2023-07-29T13:53:47;3.13;;;3.03;;
11245;SDS011;59870;50.106;8.580;2023-07-29T13:56:14;3.27;;;3.17;;
11245;SDS011;59870;50.106;8.580;2023-07-29T13:58:42;2.78;;;2.65;;
11245;SDS011;59870;50.106;8.580;2023-07-29T14:01:09;3.03;;;2.83;;
11245;SDS011;59870;50.106;8.580;2023-07-29T14:03:37;3.03;;;2.90;;
11245;SDS011;59870;50.106;8.580;2023-07-29T14:06:04;3.13;;;3.03;;
11245;SDS011;59870;50.106;8.580;2023-07-29T14:08:32;2.83;;;2.70;;
11245;SDS011;59870;50.106;8.580;2023-07-29T14:11:02;2.57;;;2.47;;
11245;SDS011;59870;50.106;8.580;2023-07-29T14:13:29;2.80;;;2.70;;
11245;SDS011;59870;50.106;8.580;2023-07-29T14:15:56;2.60;;;2.50;;
11245;SDS011;59870;50.106;8.580;2023-07-29T14:18:24;2.33;;;2.23;;
11245;SDS011;59870;50.106;8.580;2023-07-29T14:20:51;2.50;;;2.40;;
11245;SDS011;59870;50.106;8.580;2023-07-29T14:23:18;2.60;;;2.50;;
11245;SDS011;59870;50.106;8.580;2023-07-29T14:25:46;3.10;;;2.73;;
11245;SDS011;59870;50.106;8.580;2023-07-29T14:28:13;4.33;;;2.43;;
11245;SDS011;59870;50.106;8.580;2023-07-29T14:30:41;2.13;;;2.03;;
11245;SDS011;59870;50.106;8.580;2023-07-29T14:33:09;2.80;;;2.70;;
11245;SDS011;59870;50.106;8.580;2023-07-29T14:35:37;2.60;;;2.50;;
11245;SDS011;59870;50.106;8.580;2023-07-29T14:38:04;2.70;;;2.60;;
11245;SDS011;59870;50.106;8.580;2023-07-29T14:40:31;2.60;;;2.50;;
11245;SDS011;59870;50.106;8.580;2023-07-29T14:42:59;2.50;;;2.40;;
11245;SDS011;59870;50.106;8.580;2023-07-29T14:45:26;2.90;;;2.80;;
11245;SDS011;59870;50.106;8.580;2023-07-29T14:47:54;2.57;;;2.47;;
11245;SDS011;59870;50.106;8.580;2023-07-29T14:50:21;2.47;;;2.37;;
11245;SDS011;59870;50.106;8.580;2023-07-29T14:52:49;5.90;;;2.57;;
11245;SDS011;59870;50.106;8.580;2023-07-29T14:55:16;2.70;;;2.60;;
11245;SDS011;59870;50.106;8.580;2023-07-29T14:57:44;2.77;;;2.63;;
11245;SDS011;59870;50.106;8.580;2023-07-29T15:00:11;2.53;;;2.43;;
11245;SDS011;59870;50.106;8.580;2023-07-29T15:02:40;5.30;;;3.53;;
11245;SDS011;59870;50.106;8.580;2023-07-29T15:05:08;3.17;;;3.00;;
11245;SDS011;59870;50.106;8.580;2023-07-29T15:07:36;3.00;;;2.90;;
11245;SDS011;59870;50.106;8.580;2023-07-29T15:10:03;2.63;;;2.53;;